sensor_id;sensor_type;location;lat;lon;timestamp;pressure;altitude;pressure_sealevel;temperature;humidity
41102;BME280;26845;50.190;19.178;2023-07-31T00:00:21;98253.05;;;17.00;91.13
41102;BME280;26845;50.190;19.178;2023-07-31T00:03:01;98251.05;;;16.97;91.53
41102;BME280;26845;50.190;19.178;2023-07-31T00:05:41;98255.22;;;16.88;91.33
41102;BME280;26845;50.190;19.178;2023-07-31T00:08:21;98254.29;;;16.81;92.24
41102;BME280;26845;50.190;19.178;2023-07-31T00:11:02;98252.76;;;16.73;92.00
41102;BME280;26845;50.190;19.178;2023-07-31T00:13:42;98252.35;;;16.70;92.08
41102;BME280;26845;50.190;19.178;2023-07-31T00:16:22;98251.16;;;16.70;92.42
41102;BME280;26845;50.190;19.178;2023-07-31T00:19:02;98251.27;;;16.71;92.75
41102;BME280;26845;50.190;19.178;2023-07-31T00:22:02;98253.13;;;16.73;92.60
41102;BME280;26845;50.190;19.178;2023-07-31T00:24:42;98251.76;;;16.71;92.73
41102;BME280;26845;50.190;19.178;2023-07-31T00:27:22;98256.47;;;16.71;92.46
41102;BME280;26845;50.190;19.178;2023-07-31T00:30:02;98257.73;;;16.71;92.47
41102;BME280;26845;50.190;19.178;2023-07-31T00:32:42;98260.16;;;16.71;92.35
41102;BME280;26845;50.190;19.178;2023-07-31T00:35:21;98259.77;;;16.72;92.38
41102;BME280;26845;50.190;19.178;2023-07-31T00:38:01;98261.98;;;16.74;92.54
41102;BME280;26845;50.190;19.178;2023-07-31T00:40:41;98259.61;;;16.72;92.16
41102;BME280;26845;50.190;19.178;2023-07-31T00:43:21;98264.30;;;16.70;92.16
41102;BME280;26845;50.190;19.178;2023-07-31T00:46:01;98267.12;;;16.67;92.32
41102;BME280;26845;50.190;19.178;2023-07-31T00:48:42;98266.89;;;16.63;92.47
41102;BME280;26845;50.190;19.178;2023-07-31T00:51:32;98267.62;;;16.59;92.65
41102;BME280;26845;50.190;19.178;2023-07-31T00:54:12;98272.19;;;16.56;92.76
41102;BME280;26845;50.190;19.178;2023-07-31T00:56:52;98273.86;;;16.55;92.83
41102;BME280;26845;50.190;19.178;2023-07-31T00:59:32;98274.85;;;16.53;92.90
41102;BME280;26845;50.190;19.178;2023-07-31T01:02:12;98280.91;;;16.51;92.93
41102;BME280;26845;50.190;19.178;2023-07-31T01:04:52;98275.34;;;16.49;93.10
41102;BME280;26845;50.190;19.178;2023-07-31T01:07:36;98277.30;;;16.51;93.00
41102;BME280;26845;50.190;19.178;2023-07-31T01:12:55;98277.80;;;16.44;92.98
41102;BME280;26845;50.190;19.178;2023-07-31T01:15:35;98282.17;;;16.38;92.97
41102;BME280;26845;50.190;19.178;2023-07-31T01:18:15;98285.42;;;16.33;93.03
41102;BME280;26845;50.190;19.178;2023-07-31T01:20:57;98280.85;;;16.29;93.67
41102;BME280;26845;50.190;19.178;2023-07-31T01:23:39;98282.58;;;16.27;93.70
41102;BME280;26845;50.190;19.178;2023-07-31T01:26:21;98285.42;;;16.30;93.88
41102;BME280;26845;50.190;19.178;2023-07-31T01:29:09;98283.23;;;16.28;94.14
41102;BME280;26845;50.190;19.178;2023-07-31T01:31:44;98281.77;;;16.27;94.14
41102;BME280;26845;50.190;19.178;2023-07-31T01:34:24;98284.80;;;16.26;94.89
41102;BME280;26845;50.190;19.178;2023-07-31T01:37:04;98283.73;;;16.26;94.92
41102;BME280;26845;50.190;19.178;2023-07-31T01:39:44;98287.84;;;16.23;94.54
41102;BME280;26845;50.190;19.178;2023-07-31T01:42:24;98294.13;;;16.21;94.74
41102;BME280;26845;50.190;19.178;2023-07-31T01:45:04;98294.60;;;16.17;94.62
41102;BME280;26845;50.190;19.178;2023-07-31T01:47:44;98299.55;;;16.15;94.56
41102;BME280;26845;50.190;19.178;2023-07-31T01:50:24;98304.40;;;16.14;94.72
41102;BME280;26845;50.190;19.178;2023-07-31T01:53:04;98302.32;;;16.11;94.66
41102;BME280;26845;50.190;19.178;2023-07-31T01:55:44;98306.61;;;16.09;94.86
41102;BME280;26845;50.190;19.178;2023-07-31T01:58:26;98312.31;;;16.07;94.51
41102;BME280;26845;50.190;19.178;2023-07-31T02:01:06;98312.52;;;16.05;94.30
41102;BME280;26845;50.190;19.178;2023-07-31T02:03:46;98309.08;;;16.02;94.81
41102;BME280;26845;50.190;19.178;2023-07-31T02:06:26;98309.23;;;16.02;94.77
41102;BME280;26845;50.190;19.178;2023-07-31T02:09:06;98309.38;;;16.01;94.58
41102;BME280;26845;50.190;19.178;2023-07-31T02:11:46;98309.88;;;16.02;94.65
41102;BME280;26845;50.190;19.178;2023-07-31T02:14:26;98313.52;;;16.07;94.56
41102;BME280;26845;50.190;19.178;2023-07-31T02:17:06;98318.92;;;16.12;94.81
41102;BME280;26845;50.190;19.178;2023-07-31T02:19:46;98319.79;;;16.18;94.70
41102;BME280;26845;50.190;19.178;2023-07-31T02:22:26;98325.30;;;16.22;94.60
41102;BME280;26845;50.190;19.178;2023-07-31T02:25:06;98328.42;;;16.25;94.76
41102;BME280;26845;50.190;19.178;2023-07-31T02:27:46;98333.70;;;16.31;94.78
41102;BME280;26845;50.190;19.178;2023-07-31T02:30:26;98332.91;;;16.35;94.72
41102;BME280;26845;50.190;19.178;2023-07-31T02:33:06;98335.60;;;16.37;94.59
41102;BME280;26845;50.190;19.178;2023-07-31T02:35:46;98339.61;;;16.39;94.54
41102;BME280;26845;50.190;19.178;2023-07-31T02:38:26;98339.83;;;16.40;94.57
41102;BME280;26845;50.190;19.178;2023-07-31T02:41:06;98336.70;;;16.41;94.62
41102;BME280;26845;50.190;19.178;2023-07-31T02:43:46;98336.29;;;16.43;94.74
41102;BME280;26845;50.190;19.178;2023-07-31T02:46:26;98331.88;;;16.47;94.73
41102;BME280;26845;50.190;19.178;2023-07-31T02:49:06;98329.27;;;16.52;94.66
41102;BME280;26845;50.190;19.178;2023-07-31T02:51:46;98330.75;;;16.55;94.64
41102;BME280;26845;50.190;19.178;2023-07-31T02:54:26;98332.58;;;16.54;94.42
41102;BME280;26845;50.190;19.178;2023-07-31T02:57:06;98337.59;;;16.51;94.42
41102;BME280;26845;50.190;19.178;2023-07-31T02:59:46;98335.71;;;16.50;94.48
41102;BME280;26845;50.190;19.178;2023-07-31T03:02:26;98336.77;;;16.48;94.25
41102;BME280;26845;50.190;19.178;2023-07-31T03:05:06;98341.89;;;16.51;94.48
41102;BME280;26845;50.190;19.178;2023-07-31T03:07:46;98346.91;;;16.50;94.26
41102;BME280;26845;50.190;19.178;2023-07-31T03:10:26;98348.95;;;16.51;94.53
41102;BME280;26845;50.190;19.178;2023-07-31T03:13:06;98361.15;;;16.48;94.39
41102;BME280;26845;50.190;19.178;2023-07-31T03:15:46;98368.10;;;16.40;94.36
41102;BME280;26845;50.190;19.178;2023-07-31T03:18:26;98369.80;;;16.34;94.61
41102;BME280;26845;50.190;19.178;2023-07-31T03:21:06;98371.59;;;16.32;94.64
41102;BME280;26845;50.190;19.178;2023-07-31T03:23:46;98367.41;;;16.30;94.76
41102;BME280;26845;50.190;19.178;2023-07-31T03:26:26;98371.50;;;16.31;94.85
41102;BME280;26845;50.190;19.178;2023-07-31T03:29:06;98375.20;;;16.35;94.77
41102;BME280;26845;50.190;19.178;2023-07-31T03:31:46;98372.95;;;16.34;94.70
41102;BME280;26845;50.190;19.178;2023-07-31T03:34:26;98376.55;;;16.34;94.79
41102;BME280;26845;50.190;19.178;2023-07-31T03:37:06;98378.61;;;16.33;94.82
41102;BME280;26845;50.190;19.178;2023-07-31T03:39:46;98376.33;;;16.35;94.78
41102;BME280;26845;50.190;19.178;2023-07-31T03:42:26;98379.50;;;16.34;94.73
41102;BME280;26845;50.190;19.178;2023-07-31T03:45:06;98384.16;;;16.34;95.01
41102;BME280;26845;50.190;19.178;2023-07-31T03:47:46;98382.44;;;16.29;94.93
41102;BME280;26845;50.190;19.178;2023-07-31T03:50:26;98382.77;;;16.29;95.13
41102;BME280;26845;50.190;19.178;2023-07-31T03:53:06;98377.66;;;16.34;95.03
41102;BME280;26845;50.190;19.178;2023-07-31T03:55:46;98374.78;;;16.38;95.10
41102;BME280;26845;50.190;19.178;2023-07-31T03:58:26;98375.02;;;16.41;94.97
41102;BME280;26845;50.190;19.178;2023-07-31T04:01:06;98379.67;;;16.42;94.80
41102;BME280;26845;50.190;19.178;2023-07-31T04:03:46;98386.05;;;16.39;94.52
41102;BME280;26845;50.190;19.178;2023-07-31T04:06:26;98386.11;;;16.36;94.72
41102;BME280;26845;50.190;19.178;2023-07-31T04:09:06;98383.82;;;16.37;94.76
41102;BME280;26845;50.190;19.178;2023-07-31T04:11:46;98386.33;;;16.38;94.43
41102;BME280;26845;50.190;19.178;2023-07-31T04:14:26;98387.36;;;16.41;94.28
41102;BME280;26845;50.190;19.178;2023-07-31T04:17:06;98384.98;;;16.39;93.99
41102;BME280;26845;50.190;19.178;2023-07-31T04:19:46;98384.66;;;16.43;94.12
41102;BME280;26845;50.190;19.178;2023-07-31T04:22:26;98379.61;;;16.49;94.26
41102;BME280;26845;50.190;19.178;2023-07-31T04:25:06;98377.34;;;16.55;94.03
41102;BME280;26845;50.190;19.178;2023-07-31T04:27:46;98379.69;;;16.60;94.09
41102;BME280;26845;50.190;19.178;2023-07-31T04:30:26;98380.42;;;16.64;93.79
41102;BME280;26845;50.190;19.178;2023-07-31T04:33:06;98383.37;;;16.67;93.70
41102;BME280;26845;50.190;19.178;2023-07-31T04:35:52;98387.00;;;16.64;93.24
41102;BME280;26845;50.190;19.178;2023-07-31T04:38:32;98390.26;;;16.59;92.98
41102;BME280;26845;50.190;19.178;2023-07-31T04:41:11;98388.20;;;16.56;93.05
41102;BME280;26845;50.190;19.178;2023-07-31T04:43:51;98392.02;;;16.59;93.29
41102;BME280;26845;50.190;19.178;2023-07-31T04:46:30;98393.98;;;16.61;93.08
41102;BME280;26845;50.190;19.178;2023-07-31T04:49:08;98395.42;;;16.58;93.09
41102;BME280;26845;50.190;19.178;2023-07-31T04:51:48;98396.63;;;16.58;93.23
41102;BME280;26845;50.190;19.178;2023-07-31T04:54:29;98396.80;;;16.61;93.45
41102;BME280;26845;50.190;19.178;2023-07-31T04:57:08;98400.97;;;16.65;93.37
41102;BME280;26845;50.190;19.178;2023-07-31T04:59:49;98399.75;;;16.65;93.27
41102;BME280;26845;50.190;19.178;2023-07-31T05:02:29;98397.91;;;16.65;93.25
41102;BME280;26845;50.190;19.178;2023-07-31T05:05:09;98403.04;;;16.65;92.99
41102;BME280;26845;50.190;19.178;2023-07-31T05:07:49;98409.13;;;16.68;92.75
41102;BME280;26845;50.190;19.178;2023-07-31T05:10:29;98405.70;;;16.70;92.58
41102;BME280;26845;50.190;19.178;2023-07-31T05:13:08;98410.19;;;16.70;92.25
41102;BME280;26845;50.190;19.178;2023-07-31T05:15:48;98407.23;;;16.70;92.22
41102;BME280;26845;50.190;19.178;2023-07-31T05:18:28;98404.69;;;16.76;92.44
41102;BME280;26845;50.190;19.178;2023-07-31T05:21:08;98409.52;;;16.84;92.25
41102;BME280;26845;50.190;19.178;2023-07-31T05:23:48;98409.15;;;16.86;92.16
41102;BME280;26845;50.190;19.178;2023-07-31T05:26:30;98410.96;;;16.89;92.17
41102;BME280;26845;50.190;19.178;2023-07-31T05:29:11;98411.08;;;16.94;92.38
41102;BME280;26845;50.190;19.178;2023-07-31T05:31:51;98410.50;;;16.97;92.08
41102;BME280;26845;50.190;19.178;2023-07-31T05:34:31;98412.47;;;16.99;91.88
41102;BME280;26845;50.190;19.178;2023-07-31T05:37:10;98412.73;;;17.04;91.52
41102;BME280;26845;50.190;19.178;2023-07-31T05:39:51;98416.92;;;17.09;91.57
41102;BME280;26845;50.190;19.178;2023-07-31T05:42:30;98416.54;;;17.14;91.50
41102;BME280;26845;50.190;19.178;2023-07-31T05:45:10;98415.80;;;17.25;91.63
41102;BME280;26845;50.190;19.178;2023-07-31T05:47:50;98414.10;;;17.32;91.43
41102;BME280;26845;50.190;19.178;2023-07-31T05:50:31;98419.48;;;17.41;91.70
41102;BME280;26845;50.190;19.178;2023-07-31T05:53:11;98418.83;;;17.44;90.70
41102;BME280;26845;50.190;19.178;2023-07-31T05:55:50;98422.77;;;17.41;89.81
41102;BME280;26845;50.190;19.178;2023-07-31T05:58:30;98421.56;;;17.45;90.68
41102;BME280;26845;50.190;19.178;2023-07-31T06:01:13;98423.41;;;17.53;90.38
41102;BME280;26845;50.190;19.178;2023-07-31T06:03:51;98421.70;;;17.52;90.00
41102;BME280;26845;50.190;19.178;2023-07-31T06:06:31;98422.08;;;17.59;90.20
41102;BME280;26845;50.190;19.178;2023-07-31T06:09:10;98421.61;;;17.65;89.91
41102;BME280;26845;50.190;19.178;2023-07-31T06:11:51;98417.02;;;17.67;89.74
41102;BME280;26845;50.190;19.178;2023-07-31T06:14:31;98416.90;;;17.82;90.37
41102;BME280;26845;50.190;19.178;2023-07-31T06:17:11;98420.75;;;18.00;89.97
41102;BME280;26845;50.190;19.178;2023-07-31T06:19:51;98422.56;;;18.08;88.85
41102;BME280;26845;50.190;19.178;2023-07-31T06:22:31;98419.88;;;18.06;88.52
41102;BME280;26845;50.190;19.178;2023-07-31T06:25:11;98421.09;;;18.06;88.41
41102;BME280;26845;50.190;19.178;2023-07-31T06:27:51;98422.58;;;18.10;87.68
41102;BME280;26845;50.190;19.178;2023-07-31T06:30:31;98423.21;;;18.08;86.83
41102;BME280;26845;50.190;19.178;2023-07-31T06:33:10;98422.33;;;18.12;87.94
41102;BME280;26845;50.190;19.178;2023-07-31T06:35:51;98420.06;;;18.22;86.78
41102;BME280;26845;50.190;19.178;2023-07-31T06:38:30;98417.98;;;18.23;86.18
41102;BME280;26845;50.190;19.178;2023-07-31T06:41:12;98416.63;;;18.24;85.99
41102;BME280;26845;50.190;19.178;2023-07-31T06:43:51;98418.02;;;18.25;85.40
41102;BME280;26845;50.190;19.178;2023-07-31T06:46:57;98421.49;;;18.31;85.92
41102;BME280;26845;50.190;19.178;2023-07-31T06:50:03;98421.00;;;18.41;85.86
41102;BME280;26845;50.190;19.178;2023-07-31T06:53:11;98420.62;;;18.47;84.15
41102;BME280;26845;50.190;19.178;2023-07-31T06:56:16;98420.59;;;18.51;84.95
41102;BME280;26845;50.190;19.178;2023-07-31T06:59:22;98421.09;;;18.63;85.39
41102;BME280;26845;50.190;19.178;2023-07-31T07:02:29;98418.39;;;18.81;85.22
41102;BME280;26845;50.190;19.178;2023-07-31T07:05:35;98421.74;;;19.02;85.44
41102;BME280;26845;50.190;19.178;2023-07-31T07:08:46;98420.41;;;19.32;84.77
41102;BME280;26845;50.190;19.178;2023-07-31T07:11:52;98420.98;;;19.60;85.29
41102;BME280;26845;50.190;19.178;2023-07-31T07:14:59;98419.09;;;19.86;84.50
41102;BME280;26845;50.190;19.178;2023-07-31T07:18:04;98423.08;;;19.90;83.15
41102;BME280;26845;50.190;19.178;2023-07-31T07:21:25;98422.56;;;19.95;83.07
41102;BME280;26845;50.190;19.178;2023-07-31T07:24:30;98420.63;;;20.13;83.23
41102;BME280;26845;50.190;19.178;2023-07-31T07:27:36;98421.73;;;20.31;81.66
41102;BME280;26845;50.190;19.178;2023-07-31T07:30:42;98418.32;;;20.37;81.20
41102;BME280;26845;50.190;19.178;2023-07-31T07:33:48;98423.41;;;20.28;80.16
41102;BME280;26845;50.190;19.178;2023-07-31T07:36:54;98426.44;;;20.24;78.73
41102;BME280;26845;50.190;19.178;2023-07-31T07:39:59;98422.85;;;20.28;80.80
41102;BME280;26845;50.190;19.178;2023-07-31T07:43:03;98419.31;;;20.61;81.69
41102;BME280;26845;50.190;19.178;2023-07-31T07:45:40;98415.39;;;20.96;81.39
41102;BME280;26845;50.190;19.178;2023-07-31T07:48:13;98414.72;;;21.24;79.02
41102;BME280;26845;50.190;19.178;2023-07-31T07:50:46;98418.21;;;21.28;78.05
41102;BME280;26845;50.190;19.178;2023-07-31T07:53:50;98421.46;;;21.34;77.48
41102;BME280;26845;50.190;19.178;2023-07-31T07:56:32;98423.23;;;21.50;78.10
41102;BME280;26845;50.190;19.178;2023-07-31T07:58:58;98421.52;;;21.72;78.38
41102;BME280;26845;50.190;19.178;2023-07-31T08:02:03;98423.91;;;22.06;77.12
41102;BME280;26845;50.190;19.178;2023-07-31T08:04:36;98425.16;;;22.18;76.51
41102;BME280;26845;50.190;19.178;2023-07-31T08:07:22;98434.27;;;22.14;69.91
41102;BME280;26845;50.190;19.178;2023-07-31T08:09:48;98428.48;;;21.79;69.55
41102;BME280;26845;50.190;19.178;2023-07-31T08:12:13;98428.55;;;21.74;73.98
41102;BME280;26845;50.190;19.178;2023-07-31T08:14:39;98431.48;;;21.84;73.32
41102;BME280;26845;50.190;19.178;2023-07-31T08:17:04;98427.37;;;21.91;73.97
41102;BME280;26845;50.190;19.178;2023-07-31T08:19:31;98428.69;;;22.02;70.88
41102;BME280;26845;50.190;19.178;2023-07-31T08:21:57;98435.13;;;21.90;70.23
41102;BME280;26845;50.190;19.178;2023-07-31T08:24:23;98440.66;;;21.66;68.16
41102;BME280;26845;50.190;19.178;2023-07-31T08:26:49;98439.96;;;21.33;68.57
41102;BME280;26845;50.190;19.178;2023-07-31T08:29:15;98431.90;;;21.19;70.65
41102;BME280;26845;50.190;19.178;2023-07-31T08:32:19;98433.73;;;21.31;70.92
41102;BME280;26845;50.190;19.178;2023-07-31T08:34:47;98436.15;;;21.31;69.42
41102;BME280;26845;50.190;19.178;2023-07-31T08:37:12;98438.23;;;21.28;69.23
41102;BME280;26845;50.190;19.178;2023-07-31T08:39:38;98437.03;;;21.28;70.11
41102;BME280;26845;50.190;19.178;2023-07-31T08:42:07;98445.69;;;21.14;65.81
41102;BME280;26845;50.190;19.178;2023-07-31T08:44:35;98440.81;;;20.93;67.14
41102;BME280;26845;50.190;19.178;2023-07-31T08:47:08;98437.70;;;21.00;68.49
41102;BME280;26845;50.190;19.178;2023-07-31T08:49:35;98433.95;;;21.26;70.07
41102;BME280;26845;50.190;19.178;2023-07-31T08:52:04;98439.21;;;21.30;68.76
41102;BME280;26845;50.190;19.178;2023-07-31T08:54:31;98438.52;;;21.18;68.19
41102;BME280;26845;50.190;19.178;2023-07-31T08:59:49;98436.04;;;20.78;68.18
41102;BME280;26845;50.190;19.178;2023-07-31T09:02:17;98432.42;;;20.94;69.72
41102;BME280;26845;50.190;19.178;2023-07-31T09:04:45;98434.23;;;21.32;68.43
41102;BME280;26845;50.190;19.178;2023-07-31T09:07:11;98430.25;;;21.74;69.74
41102;BME280;26845;50.190;19.178;2023-07-31T09:09:38;98428.86;;;22.10;69.45
41102;BME280;26845;50.190;19.178;2023-07-31T09:12:04;98440.20;;;22.34;64.79
41102;BME280;26845;50.190;19.178;2023-07-31T09:14:37;98433.02;;;22.29;65.39
41102;BME280;26845;50.190;19.178;2023-07-31T09:17:03;98426.13;;;22.37;66.46
41102;BME280;26845;50.190;19.178;2023-07-31T09:19:34;98432.36;;;22.53;62.84
41102;BME280;26845;50.190;19.178;2023-07-31T09:22:05;98421.09;;;22.65;66.44
41102;BME280;26845;50.190;19.178;2023-07-31T09:24:33;98423.15;;;22.96;66.17
41102;BME280;26845;50.190;19.178;2023-07-31T09:27:00;98422.14;;;23.09;61.44
41102;BME280;26845;50.190;19.178;2023-07-31T09:29:28;98425.65;;;23.00;64.49
41102;BME280;26845;50.190;19.178;2023-07-31T09:32:03;98415.49;;;23.27;66.32
41102;BME280;26845;50.190;19.178;2023-07-31T09:34:37;98421.30;;;23.53;62.40
41102;BME280;26845;50.190;19.178;2023-07-31T09:37:19;98415.13;;;23.55;63.27
41102;BME280;26845;50.190;19.178;2023-07-31T09:39:47;98417.41;;;23.69;62.52
41102;BME280;26845;50.190;19.178;2023-07-31T09:42:24;98421.25;;;23.82;59.43
41102;BME280;26845;50.190;19.178;2023-07-31T09:45:06;98413.31;;;23.45;57.87
41102;BME280;26845;50.190;19.178;2023-07-31T09:47:33;98408.59;;;23.16;60.32
41102;BME280;26845;50.190;19.178;2023-07-31T09:49:59;98407.65;;;23.09;62.03
41102;BME280;26845;50.190;19.178;2023-07-31T09:52:27;98397.63;;;23.39;62.34
41102;BME280;26845;50.190;19.178;2023-07-31T09:55:14;98397.55;;;23.72;62.22
41102;BME280;26845;50.190;19.178;2023-07-31T09:57:43;98399.40;;;23.99;58.61
41102;BME280;26845;50.190;19.178;2023-07-31T10:00:12;98400.90;;;24.04;57.03
41102;BME280;26845;50.190;19.178;2023-07-31T10:02:38;98392.83;;;23.97;59.11
41102;BME280;26845;50.190;19.178;2023-07-31T10:05:05;98393.52;;;24.06;56.25
41102;BME280;26845;50.190;19.178;2023-07-31T10:08:13;98388.29;;;23.79;56.69
41102;BME280;26845;50.190;19.178;2023-07-31T10:10:38;98396.57;;;23.55;55.41
41102;BME280;26845;50.190;19.178;2023-07-31T10:13:19;98393.11;;;23.18;55.98
41102;BME280;26845;50.190;19.178;2023-07-31T10:15:47;98395.95;;;22.86;55.37
41102;BME280;26845;50.190;19.178;2023-07-31T10:18:18;98391.13;;;22.73;57.22
41102;BME280;26845;50.190;19.178;2023-07-31T10:21:03;98387.30;;;22.85;57.66
41102;BME280;26845;50.190;19.178;2023-07-31T10:23:31;98382.24;;;23.02;57.58
41102;BME280;26845;50.190;19.178;2023-07-31T10:32:22;98375.60;;;24.04;57.82
41102;BME280;26845;50.190;19.178;2023-07-31T10:35:13;98377.57;;;24.10;54.96
41102;BME280;26845;50.190;19.178;2023-07-31T10:37:39;98364.52;;;24.19;57.16
41102;BME280;26845;50.190;19.178;2023-07-31T10:40:26;98365.00;;;24.29;54.77
41102;BME280;26845;50.190;19.178;2023-07-31T10:42:53;98362.45;;;24.33;52.89
41102;BME280;26845;50.190;19.178;2023-07-31T10:45:27;98363.23;;;24.28;54.14
41102;BME280;26845;50.190;19.178;2023-07-31T10:48:06;98358.42;;;24.11;53.78
41102;BME280;26845;50.190;19.178;2023-07-31T10:50:37;98362.60;;;24.07;53.42
41102;BME280;26845;50.190;19.178;2023-07-31T10:53:07;98359.70;;;24.24;53.43
41102;BME280;26845;50.190;19.178;2023-07-31T10:55:48;98356.70;;;24.31;55.53
41102;BME280;26845;50.190;19.178;2023-07-31T11:01:08;98354.69;;;24.03;53.15
41102;BME280;26845;50.190;19.178;2023-07-31T11:03:45;98347.76;;;24.06;53.19
41102;BME280;26845;50.190;19.178;2023-07-31T11:06:29;98344.50;;;24.36;54.61
41102;BME280;26845;50.190;19.178;2023-07-31T11:08:58;98342.64;;;24.76;52.53
41102;BME280;26845;50.190;19.178;2023-07-31T11:11:38;98345.88;;;24.96;49.91
41102;BME280;26845;50.190;19.178;2023-07-31T11:14:07;98340.60;;;24.76;48.82
41102;BME280;26845;50.190;19.178;2023-07-31T11:16:37;98336.66;;;24.73;49.39
41102;BME280;26845;50.190;19.178;2023-07-31T11:19:03;98334.75;;;24.77;51.15
41102;BME280;26845;50.190;19.178;2023-07-31T11:21:33;98340.58;;;24.86;47.79
41102;BME280;26845;50.190;19.178;2023-07-31T11:24:05;98337.98;;;24.77;49.45
41102;BME280;26845;50.190;19.178;2023-07-31T11:26:32;98333.94;;;24.91;49.14
41102;BME280;26845;50.190;19.178;2023-07-31T11:29:22;98330.05;;;25.03;50.68
41102;BME280;26845;50.190;19.178;2023-07-31T11:32:08;98333.20;;;25.32;51.40
41102;BME280;26845;50.190;19.178;2023-07-31T11:34:52;98331.98;;;25.48;51.06
41102;BME280;26845;50.190;19.178;2023-07-31T11:37:18;98338.27;;;25.63;49.32
41102;BME280;26845;50.190;19.178;2023-07-31T11:39:44;98329.87;;;25.65;50.51
41102;BME280;26845;50.190;19.178;2023-07-31T11:42:23;98327.83;;;25.88;50.81
41102;BME280;26845;50.190;19.178;2023-07-31T11:44:49;98329.83;;;26.04;47.96
41102;BME280;26845;50.190;19.178;2023-07-31T11:47:15;98325.50;;;25.96;48.74
41102;BME280;26845;50.190;19.178;2023-07-31T11:49:43;98321.76;;;25.91;48.69
41102;BME280;26845;50.190;19.178;2023-07-31T11:52:11;98318.79;;;25.82;46.58
41102;BME280;26845;50.190;19.178;2023-07-31T11:54:40;98321.04;;;25.62;46.93
41102;BME280;26845;50.190;19.178;2023-07-31T11:57:08;98323.42;;;25.54;48.94
41102;BME280;26845;50.190;19.178;2023-07-31T11:59:34;98325.38;;;25.50;46.56
41102;BME280;26845;50.190;19.178;2023-07-31T12:02:00;98321.02;;;25.36;47.63
41102;BME280;26845;50.190;19.178;2023-07-31T12:04:29;98314.08;;;25.27;48.12
41102;BME280;26845;50.190;19.178;2023-07-31T12:06:55;98313.53;;;25.37;45.91
41102;BME280;26845;50.190;19.178;2023-07-31T12:09:22;98309.52;;;25.27;45.49
41102;BME280;26845;50.190;19.178;2023-07-31T12:11:52;98302.79;;;25.26;46.17
41102;BME280;26845;50.190;19.178;2023-07-31T12:14:19;98293.67;;;25.27;46.65
41102;BME280;26845;50.190;19.178;2023-07-31T12:16:45;98291.47;;;25.34;46.25
41102;BME280;26845;50.190;19.178;2023-07-31T12:19:12;98291.40;;;25.50;45.20
41102;BME280;26845;50.190;19.178;2023-07-31T12:21:37;98282.56;;;25.59;45.85
41102;BME280;26845;50.190;19.178;2023-07-31T12:24:04;98279.48;;;25.53;45.60
41102;BME280;26845;50.190;19.178;2023-07-31T12:26:34;98284.09;;;25.09;44.86
41102;BME280;26845;50.190;19.178;2023-07-31T12:29:00;98273.10;;;24.73;45.82
41102;BME280;26845;50.190;19.178;2023-07-31T12:31:27;98276.60;;;24.51;45.37
41102;BME280;26845;50.190;19.178;2023-07-31T12:33:53;98273.36;;;24.26;45.32
41102;BME280;26845;50.190;19.178;2023-07-31T12:36:22;98275.49;;;24.09;45.37
41102;BME280;26845;50.190;19.178;2023-07-31T12:38:49;98262.62;;;24.05;47.03
41102;BME280;26845;50.190;19.178;2023-07-31T12:41:15;98261.83;;;24.20;47.31
41102;BME280;26845;50.190;19.178;2023-07-31T12:43:43;98266.90;;;24.22;46.61
41102;BME280;26845;50.190;19.178;2023-07-31T12:49:07;98263.83;;;23.97;45.80
41102;BME280;26845;50.190;19.178;2023-07-31T12:51:34;98262.15;;;23.96;46.37
41102;BME280;26845;50.190;19.178;2023-07-31T12:54:02;98256.78;;;23.97;46.67
41102;BME280;26845;50.190;19.178;2023-07-31T12:56:28;98249.59;;;24.18;48.21
41102;BME280;26845;50.190;19.178;2023-07-31T12:58:53;98248.81;;;24.31;47.07
41102;BME280;26845;50.190;19.178;2023-07-31T13:01:19;98254.13;;;24.33;47.81
41102;BME280;26845;50.190;19.178;2023-07-31T13:03:45;98254.59;;;24.36;46.89
41102;BME280;26845;50.190;19.178;2023-07-31T13:06:13;98247.42;;;24.61;47.09
41102;BME280;26845;50.190;19.178;2023-07-31T13:08:55;98245.53;;;24.95;45.76
41102;BME280;26845;50.190;19.178;2023-07-31T13:11:43;98244.56;;;25.11;45.95
41102;BME280;26845;50.190;19.178;2023-07-31T13:14:28;98247.00;;;25.13;44.94
41102;BME280;26845;50.190;19.178;2023-07-31T13:17:18;98247.42;;;24.99;44.83
41102;BME280;26845;50.190;19.178;2023-07-31T13:19:44;98244.08;;;24.82;44.72
41102;BME280;26845;50.190;19.178;2023-07-31T13:22:09;98234.37;;;24.79;44.51
41102;BME280;26845;50.190;19.178;2023-07-31T13:24:35;98235.11;;;24.90;45.93
41102;BME280;26845;50.190;19.178;2023-07-31T13:27:18;98231.73;;;25.06;45.21
41102;BME280;26845;50.190;19.178;2023-07-31T13:29:48;98231.94;;;25.21;45.39
41102;BME280;26845;50.190;19.178;2023-07-31T13:32:14;98230.83;;;25.25;44.96
41102;BME280;26845;50.190;19.178;2023-07-31T13:34:41;98232.77;;;25.01;44.47
41102;BME280;26845;50.190;19.178;2023-07-31T13:37:07;98234.29;;;24.74;43.94
41102;BME280;26845;50.190;19.178;2023-07-31T13:39:33;98225.21;;;24.53;46.22
41102;BME280;26845;50.190;19.178;2023-07-31T13:42:00;98216.34;;;24.50;47.03
41102;BME280;26845;50.190;19.178;2023-07-31T13:45:09;98214.17;;;24.46;46.62
41102;BME280;26845;50.190;19.178;2023-07-31T13:48:14;98217.34;;;24.31;46.52
41102;BME280;26845;50.190;19.178;2023-07-31T13:51:19;98216.83;;;24.24;47.45
41102;BME280;26845;50.190;19.178;2023-07-31T13:54:37;98211.33;;;24.23;47.92
41102;BME280;26845;50.190;19.178;2023-07-31T13:57:22;98209.10;;;24.21;47.87
41102;BME280;26845;50.190;19.178;2023-07-31T14:00:08;98203.59;;;24.19;48.07
41102;BME280;26845;50.190;19.178;2023-07-31T14:02:43;98211.21;;;24.19;48.24
41102;BME280;26845;50.190;19.178;2023-07-31T14:05:36;98208.10;;;24.07;48.11